createdAt,value
2023-02-13T00:01:12.974Z,10.63
2023-02-13T00:06:18.424Z,11.33
2023-02-13T00:11:22.939Z,9.87
2023-02-13T00:16:31.004Z,10.83
2023-02-13T00:21:35.090Z,10.23
2023-02-13T00:26:40.631Z,10.10
2023-02-13T00:31:47.434Z,10.83
2023-02-13T00:36:55.516Z,10.77
2023-02-13T00:42:00.329Z,10.33
2023-02-13T00:47:12.270Z,10.10
2023-02-13T00:52:17.450Z,9.77
2023-02-13T00:57:24.717Z,9.57
2023-02-13T01:02:30.801Z,10.50
2023-02-13T01:07:34.847Z,11.00
2023-02-13T01:12:43.035Z,10.77
2023-02-13T01:17:55.007Z,10.57
2023-02-13T01:23:02.185Z,10.90
2023-02-13T01:28:08.480Z,10.13
2023-02-13T01:33:17.405Z,11.07
2023-02-13T01:38:23.209Z,10.83
2023-02-13T01:43:45.652Z,11.93
2023-02-13T01:48:56.508Z,14.40
2023-02-13T01:54:05.552Z,13.60
2023-02-13T01:59:19.629Z,13.43
2023-02-13T02:04:29.385Z,11.87
2023-02-13T02:09:39.649Z,11.50
2023-02-13T02:14:45.637Z,10.70
2023-02-13T02:20:03.630Z,10.30
2023-02-13T02:25:42.347Z,11.13
2023-02-13T02:31:25.706Z,11.37
2023-02-13T02:36:46.196Z,11.03
2023-02-13T02:42:00.378Z,10.87
2023-02-13T02:47:28.919Z,10.57
2023-02-13T02:52:45.975Z,11.50
2023-02-13T02:58:15.643Z,9.97
2023-02-13T03:03:40.768Z,10.73
2023-02-13T03:09:11.892Z,10.63
2023-02-13T03:14:21.694Z,9.53
2023-02-13T03:20:05.089Z,9.17
2023-02-13T03:25:34.744Z,9.53
2023-02-13T03:30:58.823Z,8.77
2023-02-13T03:36:29.177Z,9.20
2023-02-13T03:41:42.854Z,6.87
2023-02-13T03:46:50.858Z,6.70
2023-02-13T03:52:02.576Z,5.80
2023-02-13T03:57:26.444Z,5.70
2023-02-13T04:02:35.334Z,4.47
2023-02-13T04:07:41.153Z,4.87
2023-02-13T04:12:56.216Z,4.70
2023-02-13T04:18:10.611Z,4.60
2023-02-13T04:23:17.416Z,5.70
2023-02-13T04:28:28.493Z,5.53
2023-02-13T04:33:32.038Z,4.90
2023-02-13T04:38:37.026Z,4.80
2023-02-13T04:43:46.262Z,4.80
2023-02-13T04:48:56.720Z,4.10
2023-02-13T04:54:04.594Z,4.87
2023-02-13T04:59:13.685Z,5.70
2023-02-13T05:04:34.370Z,5.40
2023-02-13T05:09:43.709Z,5.07
2023-02-13T05:14:51.822Z,4.90
2023-02-13T05:19:56.465Z,4.83
2023-02-13T05:25:01.609Z,4.80
2023-02-13T05:30:32.341Z,4.87
2023-02-13T05:35:40.352Z,4.87
2023-02-13T05:40:46.641Z,5.67
2023-02-13T05:46:03.774Z,4.97
2023-02-13T05:51:09.386Z,5.60
2023-02-13T05:56:22.318Z,5.37
2023-02-13T06:01:27.933Z,5.77
2023-02-13T06:06:33.049Z,5.80
2023-02-13T06:11:37.624Z,5.77
2023-02-13T06:16:46.981Z,6.00
2023-02-13T06:21:59.806Z,6.17
2023-02-13T06:27:07.899Z,5.63
2023-02-13T06:32:20.715Z,6.27
2023-02-13T06:37:32.843Z,6.67
2023-02-13T06:42:37.180Z,5.80
2023-02-13T06:47:53.617Z,6.67
2023-02-13T06:53:00.911Z,6.13
2023-02-13T06:58:11.233Z,5.97
2023-02-13T07:03:19.849Z,6.37
2023-02-13T07:08:25.404Z,5.97
2023-02-13T07:13:33.091Z,5.50
2023-02-13T07:18:44.778Z,5.40
2023-02-13T07:23:51.099Z,5.63
2023-02-13T07:29:11.195Z,5.60
2023-02-13T07:34:21.712Z,5.60
2023-02-13T07:39:27.424Z,4.93
2023-02-13T07:44:35.520Z,5.00
2023-02-13T07:49:47.365Z,4.87
2023-02-13T07:54:55.078Z,5.03
2023-02-13T08:00:00.590Z,5.13
2023-02-13T08:05:08.999Z,5.77
2023-02-13T08:10:46.093Z,5.30
2023-02-13T08:15:51.424Z,6.03
2023-02-13T08:20:59.027Z,5.47
2023-02-13T08:26:10.442Z,5.67
2023-02-13T08:31:22.311Z,5.00
2023-02-13T08:36:28.251Z,4.97
2023-02-13T08:41:37.167Z,5.33
2023-02-13T08:46:42.197Z,5.13
2023-02-13T08:52:02.222Z,5.47
2023-02-13T08:57:07.621Z,4.80
2023-02-13T09:02:16.275Z,5.13
2023-02-13T09:07:25.480Z,4.80
2023-02-13T09:12:29.595Z,5.23
2023-02-13T09:17:37.118Z,5.13
2023-02-13T09:22:43.609Z,5.07
2023-02-13T09:27:53.791Z,5.43
2023-02-13T09:33:04.241Z,5.60
2023-02-13T09:38:18.153Z,5.40
2023-02-13T09:43:36.893Z,5.97
2023-02-13T09:48:45.733Z,6.60
2023-02-13T09:53:58.442Z,6.03
2023-02-13T09:59:09.696Z,5.47
2023-02-13T10:04:32.610Z,5.50
2023-02-13T10:09:43.902Z,5.63
2023-02-13T10:15:04.587Z,5.20
2023-02-13T10:20:23.903Z,5.27
2023-02-13T10:25:34.599Z,5.87
2023-02-13T10:30:58.910Z,5.17
2023-02-13T10:36:10.567Z,4.77
2023-02-13T10:41:30.321Z,3.37
2023-02-13T10:46:45.321Z,3.63
2023-02-13T10:51:59.916Z,3.43
2023-02-13T10:57:21.259Z,3.13
2023-02-13T11:02:30.690Z,2.70
2023-02-13T11:07:39.498Z,3.00
2023-02-13T11:12:53.557Z,2.10
2023-02-13T11:18:18.544Z,1.90
2023-02-13T11:23:38.268Z,2.30
2023-02-13T11:28:52.743Z,2.40
2023-02-13T11:33:59.849Z,2.30
2023-02-13T11:39:13.253Z,2.57
2023-02-13T11:44:28.537Z,2.30
2023-02-13T11:49:36.327Z,2.87
2023-02-13T11:54:45.020Z,2.00
2023-02-13T11:59:59.143Z,2.50
2023-02-13T12:05:24.961Z,2.50
2023-02-13T12:10:37.621Z,1.87
2023-02-13T12:15:53.272Z,2.20
2023-02-13T12:21:12.045Z,1.80
2023-02-13T12:26:37.250Z,1.97
2023-02-13T12:37:45.592Z,2.60
2023-02-13T12:43:02.711Z,2.90
2023-02-13T12:48:17.057Z,3.20
2023-02-13T12:53:37.545Z,3.00
2023-02-13T12:59:00.805Z,2.97
2023-02-13T13:04:17.300Z,2.93
2023-02-13T13:09:42.384Z,2.93
2023-02-13T13:14:54.951Z,3.13
2023-02-13T13:20:07.421Z,3.60
2023-02-13T13:25:22.275Z,2.90
2023-02-13T13:30:29.650Z,2.87
2023-02-13T13:35:36.470Z,3.20
2023-02-13T13:46:16.652Z,3.40
2023-02-13T13:51:21.534Z,3.33
2023-02-13T13:56:24.776Z,3.63
2023-02-13T14:01:31.667Z,4.10
2023-02-13T14:07:07.341Z,3.27
2023-02-13T14:12:39.736Z,3.47
2023-02-13T14:17:54.805Z,3.33
2023-02-13T14:23:07.345Z,4.53
2023-02-13T14:28:22.498Z,4.33
2023-02-13T14:33:32.571Z,5.07
2023-02-13T14:38:37.649Z,4.77
2023-02-13T14:43:54.849Z,4.43
2023-02-13T14:49:03.621Z,5.33
2023-02-13T14:54:17.036Z,5.17
2023-02-13T14:59:24.513Z,4.87
2023-02-13T15:04:32.536Z,5.27
2023-02-13T15:09:40.098Z,4.80
2023-02-13T15:14:43.173Z,5.23
2023-02-13T15:19:51.401Z,4.37
2023-02-13T15:24:54.710Z,4.47
2023-02-13T15:30:00.811Z,4.00
2023-02-13T15:35:22.794Z,4.13
2023-02-13T15:40:28.255Z,4.40
2023-02-13T15:45:32.255Z,3.63
2023-02-13T15:50:37.368Z,3.80
2023-02-13T15:55:40.504Z,4.27
2023-02-13T16:00:44.879Z,4.30
2023-02-13T16:05:51.040Z,4.27
2023-02-13T16:11:19.089Z,4.67
2023-02-13T16:16:24.090Z,4.23
2023-02-13T16:21:31.588Z,4.73
2023-02-13T16:26:39.322Z,5.00
2023-02-13T16:31:42.659Z,5.17
2023-02-13T16:36:47.307Z,4.90
2023-02-13T16:41:50.936Z,5.70
2023-02-13T16:46:57.728Z,5.40
2023-02-13T16:52:12.997Z,5.70
2023-02-13T16:57:23.622Z,5.33
2023-02-13T17:02:28.260Z,5.10
2023-02-13T17:07:37.350Z,5.07
2023-02-13T17:12:40.875Z,4.93
2023-02-13T17:17:45.143Z,5.07
2023-02-13T17:22:52.250Z,4.63
2023-02-13T17:27:57.265Z,5.10
2023-02-13T17:33:05.859Z,4.37
2023-02-13T17:38:12.234Z,4.97
2023-02-13T17:43:17.062Z,5.10
2023-02-13T17:48:25.992Z,5.10
2023-02-13T17:53:31.805Z,5.50
2023-02-13T17:58:36.436Z,5.47
2023-02-13T18:03:40.526Z,5.20
2023-02-13T18:08:45.196Z,5.43
2023-02-13T18:13:49.006Z,5.90
2023-02-13T18:19:00.509Z,6.57
2023-02-13T18:24:06.191Z,6.23
2023-02-13T18:29:09.291Z,6.60
2023-02-13T18:34:12.778Z,6.50
2023-02-13T18:39:18.053Z,7.47
2023-02-13T18:44:39.618Z,7.23
2023-02-13T18:49:45.620Z,6.47
2023-02-13T18:54:51.628Z,6.67
2023-02-13T18:59:55.142Z,7.57
2023-02-13T19:05:07.601Z,8.40
2023-02-13T19:10:12.926Z,7.73
2023-02-13T19:15:16.638Z,7.70
2023-02-13T19:20:32.590Z,8.47
2023-02-13T19:25:40.302Z,6.80
2023-02-13T19:30:47.831Z,7.50
2023-02-13T19:35:58.802Z,7.30
2023-02-13T19:41:05.946Z,7.83
2023-02-13T19:46:22.059Z,8.03
2023-02-13T19:51:55.097Z,8.93
2023-02-13T19:57:01.609Z,8.70
2023-02-13T20:02:21.604Z,8.67
2023-02-13T20:07:28.837Z,8.43
2023-02-13T20:12:37.142Z,7.47
2023-02-13T20:17:49.356Z,8.23
2023-02-13T20:22:55.199Z,8.87
2023-02-13T20:28:12.986Z,7.60
2023-02-13T20:33:26.911Z,9.10
2023-02-13T20:38:30.581Z,10.40
2023-02-13T20:43:35.159Z,11.87
2023-02-13T20:48:38.386Z,13.10
2023-02-13T20:53:42.973Z,10.03
2023-02-13T20:58:49.209Z,11.47
2023-02-13T21:03:54.963Z,12.13
2023-02-13T21:08:58.260Z,13.30
2023-02-13T21:14:03.669Z,13.33
2023-02-13T21:19:08.686Z,12.50
2023-02-13T21:24:14.862Z,12.70
2023-02-13T21:29:19.707Z,12.03
2023-02-13T21:34:22.833Z,11.33
2023-02-13T21:39:26.019Z,11.97
2023-02-13T21:44:30.568Z,10.53
2023-02-13T21:49:33.724Z,11.13
2023-02-13T21:54:36.795Z,11.80
2023-02-13T21:59:41.493Z,10.97
2023-02-13T22:04:44.858Z,11.03
2023-02-13T22:09:48.080Z,11.03
2023-02-13T22:14:52.643Z,11.23
2023-02-13T22:19:55.905Z,10.17
2023-02-13T22:24:59.096Z,10.57
2023-02-13T22:30:03.837Z,10.23
2023-02-13T22:35:09.589Z,9.57
2023-02-13T22:40:13.378Z,10.43
2023-02-13T22:45:18.256Z,9.73
2023-02-13T22:50:21.634Z,9.93
2023-02-13T22:55:24.794Z,10.40
2023-02-13T23:00:30.030Z,10.80
2023-02-13T23:05:33.139Z,12.00
2023-02-13T23:10:36.419Z,12.10
2023-02-13T23:15:47.229Z,13.40
2023-02-13T23:20:50.525Z,12.90
2023-02-13T23:25:53.651Z,12.73
2023-02-13T23:30:59.052Z,14.10
2023-02-13T23:36:02.460Z,14.57
2023-02-13T23:41:09.121Z,14.57
2023-02-13T23:46:13.791Z,14.13
2023-02-13T23:51:18.533Z,13.23
2023-02-13T23:56:21.798Z,14.73
